createdAt,value
2023-02-23T00:02:03.862Z,101546.66
2023-02-23T00:04:31.426Z,101556.84
2023-02-23T00:06:59.075Z,101560.47
2023-02-23T00:09:28.131Z,101559.34
2023-02-23T00:11:57.389Z,101563.16
2023-02-23T00:14:27.429Z,101568.41
2023-02-23T00:16:56.473Z,101576.25
2023-02-23T00:19:25.110Z,101575.53
2023-02-23T00:21:53.824Z,101580.22
2023-02-23T00:24:23.376Z,101588.13
2023-02-23T00:26:51.710Z,101591.75
2023-02-23T00:29:21.771Z,101589.88
2023-02-23T00:31:50.218Z,101589.31
2023-02-23T00:34:23.770Z,101596.63
2023-02-23T00:36:55.662Z,101598.03
2023-02-23T00:39:26.649Z,101594.31
2023-02-23T00:41:55.695Z,101599.50
2023-02-23T00:44:23.723Z,101608.44
2023-02-23T00:46:52.234Z,101603.97
2023-02-23T00:49:23.876Z,101602.91
2023-02-23T00:51:52.392Z,101614.63
2023-02-23T00:54:20.839Z,101615.25
2023-02-23T00:56:48.530Z,101613.56
2023-02-23T00:59:16.427Z,101616.34
2023-02-23T01:01:44.300Z,101622.19
2023-02-23T01:04:12.228Z,101626.81
2023-02-23T01:06:40.990Z,101631.19
2023-02-23T01:09:09.983Z,101635.97
2023-02-23T01:11:41.627Z,101637.66
2023-02-23T01:14:10.460Z,101636.09
2023-02-23T01:16:39.160Z,101627.97
2023-02-23T01:19:10.058Z,101636.88
2023-02-23T01:21:38.808Z,101642.78
2023-02-23T01:24:07.182Z,101633.44
2023-02-23T01:26:38.258Z,101644.63
2023-02-23T01:29:11.400Z,101648.44
2023-02-23T01:31:40.519Z,101650.59
2023-02-23T01:34:12.050Z,101652.19
2023-02-23T01:36:41.280Z,101652.59
2023-02-23T01:39:12.299Z,101653.50
2023-02-23T01:41:44.895Z,101650.59
2023-02-23T01:44:15.878Z,101664.13
2023-02-23T01:46:45.803Z,101660.47
2023-02-23T01:49:20.388Z,101664.69
2023-02-23T01:51:50.267Z,101671.88
2023-02-23T01:54:42.149Z,101673.66
2023-02-23T01:57:12.021Z,101675.56
2023-02-23T01:59:49.186Z,101676.63
2023-02-23T02:02:18.213Z,101682.59
2023-02-23T02:04:46.985Z,101678.19
2023-02-23T02:07:25.142Z,101699.44
2023-02-23T02:10:12.423Z,101694.69
2023-02-23T02:12:44.744Z,101694.81
2023-02-23T02:15:18.200Z,101710.03
2023-02-23T02:18:10.760Z,101710.66
2023-02-23T02:21:12.318Z,101714.16
2023-02-23T02:24:02.030Z,101725.34
2023-02-23T02:26:48.064Z,101724.47
2023-02-23T02:29:42.925Z,101729.31
2023-02-23T02:33:01.978Z,101730.47
2023-02-23T02:35:50.285Z,101736.09
2023-02-23T02:38:43.095Z,101738.25
2023-02-23T02:41:30.432Z,101735.56
2023-02-23T02:44:20.273Z,101740.56
2023-02-23T02:46:49.399Z,101744.38
2023-02-23T02:49:35.286Z,101742.47
2023-02-23T02:52:12.021Z,101753.94
2023-02-23T02:54:57.376Z,101753.31
2023-02-23T02:57:26.657Z,101747.59
2023-02-23T03:00:13.218Z,101756.66
2023-02-23T03:02:59.355Z,101758.56
2023-02-23T03:05:49.122Z,101758.22
2023-02-23T03:08:58.088Z,101767.38
2023-02-23T03:11:50.155Z,101770.13
2023-02-23T03:14:40.569Z,101766.00
2023-02-23T03:17:58.572Z,101777.03
2023-02-23T03:21:02.676Z,101782.31
2023-02-23T03:24:21.232Z,101786.75
2023-02-23T03:27:20.062Z,101778.78
2023-02-23T03:30:19.485Z,101788.13
2023-02-23T03:33:14.474Z,101783.91
2023-02-23T03:36:13.023Z,101791.34
2023-02-23T03:39:13.007Z,101791.06
2023-02-23T03:42:00.294Z,101789.16
2023-02-23T03:44:58.165Z,101788.09
2023-02-23T03:47:46.309Z,101799.16
2023-02-23T03:50:49.563Z,101798.13
2023-02-23T03:53:37.055Z,101799.28
2023-02-23T03:56:23.575Z,101791.56
2023-02-23T03:59:11.111Z,101799.50
2023-02-23T04:01:57.215Z,101805.88
2023-02-23T04:04:43.227Z,101809.25
2023-02-23T04:07:29.237Z,101810.97
2023-02-23T04:10:15.383Z,101812.03
2023-02-23T04:13:34.106Z,101819.19
2023-02-23T04:16:29.916Z,101819.59
2023-02-23T04:18:57.631Z,101823.97
2023-02-23T04:21:25.286Z,101832.16
2023-02-23T04:23:52.821Z,101830.00
2023-02-23T04:26:20.538Z,101830.34
2023-02-23T04:28:48.314Z,101836.09
2023-02-23T04:31:18.412Z,101843.88
2023-02-23T04:33:46.121Z,101840.34
2023-02-23T04:36:13.638Z,101844.56
2023-02-23T04:38:41.365Z,101843.38
2023-02-23T04:41:09.291Z,101842.38
2023-02-23T04:43:41.857Z,101854.56
2023-02-23T04:46:09.786Z,101859.59
2023-02-23T04:48:37.360Z,101852.47
2023-02-23T04:51:05.097Z,101858.56
2023-02-23T04:53:32.692Z,101862.97
2023-02-23T04:56:00.374Z,101860.41
2023-02-23T04:58:28.086Z,101869.19
2023-02-23T05:00:55.899Z,101875.69
2023-02-23T05:03:23.585Z,101882.78
2023-02-23T05:05:52.629Z,101886.94
2023-02-23T05:08:20.768Z,101886.94
2023-02-23T05:10:48.314Z,101896.59
2023-02-23T05:13:17.251Z,101887.75
2023-02-23T05:15:45.225Z,101886.94
2023-02-23T05:18:12.847Z,101897.63
2023-02-23T05:20:44.919Z,101905.81
2023-02-23T05:23:13.421Z,101906.00
2023-02-23T05:25:41.975Z,101910.47
2023-02-23T05:28:11.125Z,101912.16
2023-02-23T05:30:38.954Z,101925.75
2023-02-23T05:33:06.530Z,101928.69
2023-02-23T05:35:34.705Z,101931.88
2023-02-23T05:38:02.230Z,101934.22
2023-02-23T05:40:30.386Z,101938.53
2023-02-23T05:43:00.702Z,101945.75
2023-02-23T05:45:28.282Z,101948.47
2023-02-23T05:47:56.417Z,101956.22
2023-02-23T05:50:23.954Z,101947.16
2023-02-23T05:52:53.983Z,101958.69
2023-02-23T05:55:21.469Z,101960.09
2023-02-23T05:57:50.830Z,101962.34
2023-02-23T06:00:18.778Z,101959.38
2023-02-23T06:02:53.157Z,101970.69
2023-02-23T06:05:20.762Z,101964.22
2023-02-23T06:07:48.290Z,101968.69
2023-02-23T06:10:15.926Z,101967.63
2023-02-23T06:12:43.471Z,101966.03
2023-02-23T06:15:11.690Z,101976.38
2023-02-23T06:17:39.270Z,101971.31
2023-02-23T06:20:07.402Z,101972.25
2023-02-23T06:22:37.322Z,101979.13
2023-02-23T06:25:06.524Z,101969.69
2023-02-23T06:27:34.230Z,101986.31
2023-02-23T06:30:01.754Z,101987.31
2023-02-23T06:32:29.673Z,101988.28
2023-02-23T06:34:57.564Z,101989.88
2023-02-23T06:37:25.731Z,101996.03
2023-02-23T06:39:53.474Z,101989.91
2023-02-23T06:42:21.242Z,101987.53
2023-02-23T06:44:49.504Z,101993.72
2023-02-23T06:47:17.472Z,101988.03
2023-02-23T06:49:45.268Z,102002.94
2023-02-23T06:52:13.921Z,101996.72
2023-02-23T06:54:42.110Z,102002.97
2023-02-23T06:57:10.072Z,102007.63
2023-02-23T06:59:37.983Z,101998.50
2023-02-23T07:02:07.470Z,101998.13
2023-02-23T07:04:36.413Z,102005.13
2023-02-23T07:07:05.501Z,102006.94
2023-02-23T07:09:34.256Z,102006.19
2023-02-23T07:12:05.568Z,102003.94
2023-02-23T07:14:35.901Z,102017.66
2023-02-23T07:17:07.016Z,102010.47
2023-02-23T07:19:40.217Z,102026.59
2023-02-23T07:22:08.240Z,102023.94
2023-02-23T07:24:36.301Z,102029.47
2023-02-23T07:27:04.921Z,102023.31
2023-02-23T07:29:33.385Z,102033.50
2023-02-23T07:32:01.910Z,102032.41
2023-02-23T07:34:29.925Z,102043.22
2023-02-23T07:36:58.171Z,102039.41
2023-02-23T07:39:26.445Z,102026.91
2023-02-23T07:41:54.860Z,102028.53
2023-02-23T07:44:29.778Z,102034.03
2023-02-23T07:46:58.568Z,102023.06
2023-02-23T07:49:26.651Z,102035.38
2023-02-23T07:51:55.381Z,102030.16
2023-02-23T07:54:23.973Z,102035.41
2023-02-23T07:56:52.757Z,102039.50
2023-02-23T07:59:21.901Z,102057.50
2023-02-23T08:01:49.837Z,102050.53
2023-02-23T08:04:17.925Z,102055.69
2023-02-23T08:06:46.011Z,102068.41
2023-02-23T08:09:15.189Z,102059.22
2023-02-23T08:11:44.262Z,102072.72
2023-02-23T08:14:15.118Z,102060.28
2023-02-23T08:16:43.722Z,102063.69
2023-02-23T08:19:19.435Z,102076.91
2023-02-23T08:21:47.528Z,102069.84
2023-02-23T08:24:17.712Z,102069.94
2023-02-23T08:26:47.043Z,102078.81
2023-02-23T08:29:18.547Z,102079.97
2023-02-23T08:31:47.249Z,102074.41
2023-02-23T08:34:19.797Z,102080.41
2023-02-23T08:36:48.449Z,102090.53
2023-02-23T08:39:21.308Z,102085.31
2023-02-23T08:41:49.656Z,102080.69
2023-02-23T08:44:17.467Z,102064.81
2023-02-23T08:47:42.142Z,102070.41
2023-02-23T08:50:30.420Z,102074.78
2023-02-23T08:52:58.452Z,102077.53
2023-02-23T08:55:26.794Z,102071.66
2023-02-23T08:57:59.355Z,102086.63
2023-02-23T09:00:27.587Z,102079.75
2023-02-23T09:02:57.584Z,102099.91
2023-02-23T09:05:25.634Z,102096.34
2023-02-23T09:07:54.474Z,102096.28
2023-02-23T09:10:25.076Z,102092.25
2023-02-23T09:12:58.795Z,102080.69
2023-02-23T09:15:26.776Z,102099.38
2023-02-23T09:17:54.740Z,102088.25
2023-02-23T09:20:27.146Z,102088.41
2023-02-23T09:22:55.908Z,102095.69
2023-02-23T09:25:29.384Z,102084.84
2023-02-23T09:27:57.801Z,102087.41
2023-02-23T09:30:26.426Z,102090.75
2023-02-23T09:32:57.510Z,102086.50
2023-02-23T09:35:25.753Z,102096.88
2023-02-23T09:37:55.103Z,102097.13
2023-02-23T09:40:32.110Z,102076.97
2023-02-23T09:43:36.710Z,102084.13
2023-02-23T09:46:45.550Z,102087.81
2023-02-23T09:49:18.943Z,102087.22
2023-02-23T09:51:49.379Z,102087.22
2023-02-23T09:54:17.488Z,102086.09
2023-02-23T09:56:48.959Z,102092.78
2023-02-23T09:59:20.742Z,102077.22
2023-02-23T10:01:48.627Z,102080.22
2023-02-23T10:04:29.195Z,102078.00
2023-02-23T10:07:00.113Z,102080.44
2023-02-23T10:09:49.763Z,102075.09
2023-02-23T10:12:26.770Z,102082.84
2023-02-23T10:15:07.068Z,102072.78
2023-02-23T10:17:51.963Z,102070.00
2023-02-23T10:20:41.753Z,102069.50
2023-02-23T10:23:14.004Z,102066.59
2023-02-23T10:25:46.809Z,102075.41
2023-02-23T10:28:16.686Z,102071.38
2023-02-23T10:30:44.555Z,102059.13
2023-02-23T10:33:20.903Z,102058.34
2023-02-23T10:36:03.826Z,102060.28
2023-02-23T10:38:40.532Z,102070.59
2023-02-23T10:41:09.391Z,102072.63
2023-02-23T10:43:39.249Z,102065.34
2023-02-23T10:46:07.120Z,102056.00
2023-02-23T10:48:40.103Z,102060.09
2023-02-23T10:51:19.573Z,102056.88
2023-02-23T10:53:51.061Z,102061.41
2023-02-23T10:56:20.069Z,102068.94
2023-02-23T10:58:52.801Z,102067.19
2023-02-23T11:01:33.065Z,102066.50
2023-02-23T11:04:14.216Z,102074.38
2023-02-23T11:06:43.836Z,102074.59
2023-02-23T11:09:47.564Z,102074.28
2023-02-23T11:12:25.584Z,102071.69
2023-02-23T11:14:55.231Z,102075.13
2023-02-23T11:17:27.818Z,102078.28
2023-02-23T11:20:19.376Z,102075.41
2023-02-23T11:22:48.168Z,102076.13
2023-02-23T11:25:20.323Z,102084.31
2023-02-23T11:27:52.481Z,102094.34
2023-02-23T11:30:22.014Z,102076.75
2023-02-23T11:32:55.005Z,102093.84
2023-02-23T11:35:22.714Z,102085.91
2023-02-23T11:37:50.828Z,102086.59
2023-02-23T11:40:21.624Z,102083.31
2023-02-23T11:43:10.034Z,102086.72
2023-02-23T11:45:45.741Z,102075.94
2023-02-23T11:48:33.051Z,102070.94
2023-02-23T11:51:00.739Z,102082.09
2023-02-23T11:53:46.582Z,102079.13
2023-02-23T11:56:14.779Z,102070.34
2023-02-23T11:59:21.343Z,102077.34
2023-02-23T12:01:53.691Z,102072.75
2023-02-23T12:04:49.673Z,102076.81
2023-02-23T12:07:23.529Z,102061.66
2023-02-23T12:09:59.574Z,102083.41
2023-02-23T12:12:28.371Z,102073.38
2023-02-23T12:15:00.554Z,102065.00
2023-02-23T12:17:31.985Z,102078.03
2023-02-23T12:20:25.525Z,102071.66
2023-02-23T12:23:13.990Z,102068.41
2023-02-23T12:26:01.980Z,102063.19
2023-02-23T12:29:00.668Z,102068.69
2023-02-23T12:31:48.132Z,102074.75
2023-02-23T12:34:24.283Z,102079.69
2023-02-23T12:37:07.716Z,102082.84
2023-02-23T12:39:36.940Z,102064.09
2023-02-23T12:42:44.839Z,102074.47
2023-02-23T12:45:34.178Z,102069.97
2023-02-23T12:48:20.813Z,102062.38
2023-02-23T12:50:53.345Z,102064.09
2023-02-23T12:53:29.365Z,102064.91
2023-02-23T12:56:04.620Z,102068.53
2023-02-23T12:58:38.665Z,102068.03
2023-02-23T13:01:13.043Z,102073.19
2023-02-23T13:03:51.635Z,102072.28
2023-02-23T13:06:53.192Z,102072.34
2023-02-23T13:09:23.629Z,102075.47
2023-02-23T13:12:19.566Z,102071.66
2023-02-23T13:14:58.849Z,102067.84
2023-02-23T13:17:26.773Z,102067.63
2023-02-23T13:19:58.984Z,102078.84
2023-02-23T13:22:30.825Z,102075.38
2023-02-23T13:25:00.027Z,102073.97
2023-02-23T13:27:36.021Z,102085.94
2023-02-23T13:30:04.675Z,102088.97
2023-02-23T13:32:33.750Z,102103.63
2023-02-23T13:35:03.016Z,102103.41
2023-02-23T13:37:35.242Z,102100.59
2023-02-23T13:40:22.970Z,102106.22
2023-02-23T13:43:18.021Z,102104.56
2023-02-23T13:46:01.904Z,102112.25
2023-02-23T13:48:56.066Z,102101.69
2023-02-23T13:51:58.278Z,102115.69
2023-02-23T13:54:32.443Z,102112.41
2023-02-23T13:57:05.788Z,102115.00
2023-02-23T13:59:39.208Z,102118.25
2023-02-23T14:02:33.193Z,102114.72
2023-02-23T14:05:30.388Z,102127.50
2023-02-23T14:08:05.843Z,102127.25
2023-02-23T14:10:40.806Z,102127.59
2023-02-23T14:13:25.508Z,102132.72
2023-02-23T14:16:11.172Z,102132.72
2023-02-23T14:18:56.429Z,102122.56
2023-02-23T14:21:29.232Z,102130.28
2023-02-23T14:24:13.559Z,102125.59
2023-02-23T14:26:46.228Z,102122.81
2023-02-23T14:29:18.062Z,102132.72
2023-02-23T14:31:59.424Z,102126.88
2023-02-23T14:34:51.352Z,102126.91
2023-02-23T14:37:37.925Z,102128.75
2023-02-23T14:40:37.722Z,102129.19
2023-02-23T14:43:32.085Z,102123.03
2023-02-23T14:46:01.328Z,102123.38
2023-02-23T14:48:29.221Z,102134.63
2023-02-23T14:51:17.141Z,102129.50
2023-02-23T14:53:44.826Z,102131.84
2023-02-23T14:56:20.596Z,102130.75
2023-02-23T14:58:52.900Z,102133.41
2023-02-23T15:01:37.625Z,102138.16
2023-02-23T15:04:12.840Z,102138.34
2023-02-23T15:06:42.548Z,102133.44
2023-02-23T15:09:33.827Z,102138.56
2023-02-23T15:12:03.419Z,102139.13
2023-02-23T15:14:31.268Z,102142.06
2023-02-23T15:16:59.199Z,102152.50
2023-02-23T15:19:28.795Z,102156.03
2023-02-23T15:21:57.391Z,102160.00
2023-02-23T15:24:31.744Z,102154.25
2023-02-23T15:26:59.966Z,102165.03
2023-02-23T15:29:32.656Z,102164.75
2023-02-23T15:32:21.070Z,102159.78
2023-02-23T15:34:49.068Z,102169.47
2023-02-23T15:37:21.877Z,102166.84
2023-02-23T15:39:54.836Z,102165.97
2023-02-23T15:42:29.080Z,102170.63
2023-02-23T15:45:01.014Z,102174.97
2023-02-23T15:47:35.790Z,102173.53
2023-02-23T15:50:34.919Z,102177.00
2023-02-23T15:53:29.368Z,102178.03
2023-02-23T15:56:03.062Z,102179.34
2023-02-23T15:58:41.749Z,102185.44
2023-02-23T16:01:15.534Z,102189.72
2023-02-23T16:03:47.170Z,102182.47
2023-02-23T16:06:24.390Z,102186.19
2023-02-23T16:09:06.053Z,102192.31
2023-02-23T16:11:37.816Z,102195.50
2023-02-23T16:14:06.932Z,102204.63
2023-02-23T16:16:36.599Z,102198.50
2023-02-23T16:19:05.306Z,102203.84
2023-02-23T16:21:33.217Z,102195.44
2023-02-23T16:24:06.892Z,102198.50
2023-02-23T16:26:52.138Z,102203.63
2023-02-23T16:29:41.723Z,102200.38
2023-02-23T16:32:20.015Z,102211.31
2023-02-23T16:35:00.642Z,102200.88
2023-02-23T16:37:28.767Z,102196.13
2023-02-23T16:39:57.309Z,102205.34
2023-02-23T16:42:34.842Z,102202.31
2023-02-23T16:45:02.765Z,102198.94
2023-02-23T16:47:36.573Z,102195.59
2023-02-23T16:50:20.728Z,102197.66
2023-02-23T16:52:52.507Z,102205.47
2023-02-23T16:55:27.423Z,102207.94
2023-02-23T16:57:59.639Z,102207.91
2023-02-23T17:00:32.189Z,102214.09
2023-02-23T17:03:06.387Z,102218.28
2023-02-23T17:05:35.064Z,102216.06
2023-02-23T17:08:05.057Z,102214.03
2023-02-23T17:10:33.865Z,102221.66
2023-02-23T17:13:05.150Z,102220.41
2023-02-23T17:15:38.246Z,102210.31
2023-02-23T17:18:06.035Z,102215.06
2023-02-23T17:20:33.702Z,102218.94
2023-02-23T17:23:02.058Z,102208.47
2023-02-23T17:25:30.108Z,102208.59
2023-02-23T17:27:58.004Z,102201.75
2023-02-23T17:30:25.623Z,102205.41
2023-02-23T17:32:54.573Z,102200.25
2023-02-23T17:35:22.595Z,102197.78
2023-02-23T17:37:50.908Z,102197.00
2023-02-23T17:40:31.244Z,102196.13
2023-02-23T17:42:59.793Z,102199.06
2023-02-23T17:45:28.091Z,102200.03
2023-02-23T17:47:55.875Z,102195.72
2023-02-23T17:50:24.289Z,102194.22
2023-02-23T17:52:51.818Z,102194.34
2023-02-23T17:55:19.754Z,102203.28
2023-02-23T17:57:47.724Z,102198.84
2023-02-23T18:00:16.649Z,102209.59
2023-02-23T18:02:45.538Z,102207.09
2023-02-23T18:05:13.628Z,102201.75
2023-02-23T18:07:45.065Z,102202.69
2023-02-23T18:10:14.741Z,102201.75
2023-02-23T18:12:48.303Z,102205.50
2023-02-23T18:15:18.612Z,102202.34
2023-02-23T18:17:46.282Z,102205.13
2023-02-23T18:20:15.359Z,102202.59
2023-02-23T18:22:44.463Z,102206.19
2023-02-23T18:25:39.582Z,102203.78
2023-02-23T18:28:10.092Z,102201.41
2023-02-23T18:30:38.599Z,102195.38
2023-02-23T18:33:06.976Z,102190.06
2023-02-23T18:35:37.553Z,102195.47
2023-02-23T18:38:05.937Z,102192.97
2023-02-23T18:40:33.772Z,102181.63
2023-02-23T18:43:01.449Z,102192.41
2023-02-23T18:45:29.437Z,102196.91
2023-02-23T18:47:57.062Z,102200.44
2023-02-23T18:50:26.504Z,102202.19
2023-02-23T18:52:55.470Z,102187.13
2023-02-23T18:55:23.421Z,102194.41
2023-02-23T18:57:55.146Z,102202.53
2023-02-23T19:00:23.153Z,102198.25
2023-02-23T19:02:50.765Z,102201.03
2023-02-23T19:05:20.854Z,102199.50
2023-02-23T19:07:49.786Z,102206.59
2023-02-23T19:10:17.895Z,102206.59
2023-02-23T19:12:45.635Z,102212.19
2023-02-23T19:15:13.492Z,102217.56
2023-02-23T19:17:41.189Z,102224.78
2023-02-23T19:20:13.433Z,102232.81
2023-02-23T19:22:41.573Z,102232.81
2023-02-23T19:25:11.829Z,102232.75
2023-02-23T19:27:39.921Z,102239.00
2023-02-23T19:30:10.214Z,102243.34
2023-02-23T19:32:39.874Z,102234.41
2023-02-23T19:35:10.454Z,102236.13
2023-02-23T19:37:40.162Z,102233.47
2023-02-23T19:40:08.522Z,102230.00
2023-02-23T19:42:37.084Z,102232.66
2023-02-23T19:45:05.094Z,102245.84
2023-02-23T19:47:32.676Z,102248.13
2023-02-23T19:50:00.246Z,102239.06
2023-02-23T19:52:30.886Z,102243.47
2023-02-23T19:55:03.873Z,102245.19
2023-02-23T19:57:31.838Z,102243.31
2023-02-23T19:59:59.356Z,102238.88
2023-02-23T20:02:26.955Z,102241.47
2023-02-23T20:04:54.647Z,102243.25
2023-02-23T20:07:22.256Z,102242.34
2023-02-23T20:09:49.717Z,102232.59
2023-02-23T20:12:20.217Z,102227.13
2023-02-23T20:14:49.697Z,102225.31
2023-02-23T20:17:17.187Z,102219.03
2023-02-23T20:19:46.919Z,102216.19
2023-02-23T20:22:14.443Z,102208.84
2023-02-23T20:24:42.025Z,102203.97
2023-02-23T20:27:09.646Z,102193.94
2023-02-23T20:29:37.626Z,102191.81
2023-02-23T20:32:05.711Z,102211.22
2023-02-23T20:34:35.762Z,102202.16
2023-02-23T20:37:04.499Z,102206.44
2023-02-23T20:39:32.180Z,102200.88
2023-02-23T20:42:00.383Z,102206.91
2023-02-23T20:44:29.461Z,102213.94
2023-02-23T20:46:57.887Z,102214.84
2023-02-23T20:49:27.511Z,102226.31
2023-02-23T20:51:55.005Z,102236.16
2023-02-23T20:54:22.632Z,102240.78
2023-02-23T20:57:07.769Z,102236.44
2023-02-23T20:59:38.863Z,102234.72
2023-02-23T21:02:06.500Z,102225.78
2023-02-23T21:04:38.637Z,102223.38
2023-02-23T21:07:06.914Z,102232.41
2023-02-23T21:09:34.629Z,102229.94
2023-02-23T21:12:03.760Z,102227.19
2023-02-23T21:14:39.226Z,102227.31
2023-02-23T21:17:06.809Z,102227.41
2023-02-23T21:19:34.462Z,102224.75
2023-02-23T21:22:02.954Z,102224.09
2023-02-23T21:24:33.931Z,102233.25
2023-02-23T21:27:05.436Z,102229.00
2023-02-23T21:29:33.200Z,102231.19
2023-02-23T21:32:01.285Z,102235.97
2023-02-23T21:34:28.962Z,102238.00
2023-02-23T21:37:09.748Z,102226.47
2023-02-23T21:39:38.225Z,102217.72
2023-02-23T21:42:08.590Z,102211.59
2023-02-23T21:44:36.159Z,102221.41
2023-02-23T21:47:07.341Z,102225.88
2023-02-23T21:49:35.281Z,102238.28
2023-02-23T21:52:03.650Z,102233.91
2023-02-23T21:54:31.196Z,102230.84
2023-02-23T21:56:58.791Z,102228.88
2023-02-23T21:59:26.638Z,102227.75
2023-02-23T22:01:54.444Z,102222.41
2023-02-23T22:04:22.021Z,102228.28
2023-02-23T22:06:49.662Z,102221.81
2023-02-23T22:09:17.205Z,102217.28
2023-02-23T22:11:46.311Z,102209.75
2023-02-23T22:14:32.740Z,102211.66
2023-02-23T22:17:00.562Z,102216.09
2023-02-23T22:19:28.267Z,102210.47
2023-02-23T22:21:55.781Z,102205.22
2023-02-23T22:24:23.310Z,102212.97
2023-02-23T22:26:54.399Z,102211.19
2023-02-23T22:29:23.089Z,102210.50
2023-02-23T22:31:51.166Z,102208.72
2023-02-23T22:34:18.953Z,102205.22
2023-02-23T22:36:46.595Z,102207.72
2023-02-23T22:39:16.433Z,102198.06
2023-02-23T22:41:47.624Z,102204.44
2023-02-23T22:44:20.456Z,102210.78
2023-02-23T22:46:48.450Z,102203.94
2023-02-23T22:49:16.202Z,102197.72
2023-02-23T22:51:44.408Z,102195.94
2023-02-23T22:54:13.471Z,102199.50
2023-02-23T22:56:42.457Z,102204.91
2023-02-23T22:59:11.132Z,102204.91
2023-02-23T23:01:39.000Z,102208.38
2023-02-23T23:04:10.648Z,102202.19
2023-02-23T23:06:40.233Z,102214.69
2023-02-23T23:09:08.401Z,102211.22
2023-02-23T23:11:36.508Z,102213.06
2023-02-23T23:14:07.072Z,102212.41
2023-02-23T23:16:35.320Z,102199.16
2023-02-23T23:19:04.790Z,102197.41
2023-02-23T23:21:33.599Z,102189.38
2023-02-23T23:24:07.271Z,102183.19
2023-02-23T23:26:36.315Z,102189.41
2023-02-23T23:29:07.566Z,102193.94
2023-02-23T23:31:36.900Z,102191.28
2023-02-23T23:34:06.615Z,102188.50
2023-02-23T23:36:37.445Z,102186.63
2023-02-23T23:39:06.291Z,102172.56
2023-02-23T23:41:35.565Z,102149.72
2023-02-23T23:44:06.182Z,102150.53
2023-02-23T23:46:35.612Z,102145.09
2023-02-23T23:49:08.196Z,102142.53
2023-02-23T23:51:44.829Z,102145.09
2023-02-23T23:54:21.681Z,102136.25
2023-02-23T23:56:49.828Z,102127.44
2023-02-23T23:59:20.617Z,102133.75
